createdAt,value
2018-05-18T00:01:15.196Z,16.40
2018-05-18T00:04:18.633Z,16.30
2018-05-18T00:07:21.309Z,16.30
2018-05-18T00:10:24.110Z,16.30
2018-05-18T00:13:26.795Z,16.20
2018-05-18T00:16:29.511Z,16.20
2018-05-18T00:19:32.254Z,16.10
2018-05-18T00:22:35.293Z,16.10
2018-05-18T00:25:38.090Z,16.10
2018-05-18T00:28:40.797Z,16.00
2018-05-18T00:31:44.521Z,16.00
2018-05-18T00:34:47.205Z,16.00
2018-05-18T00:37:50.686Z,16.00
2018-05-18T00:40:54.076Z,16.00
2018-05-18T00:43:58.003Z,15.90
2018-05-18T00:47:01.507Z,15.90
2018-05-18T00:50:04.878Z,15.90
2018-05-18T00:53:07.873Z,15.90
2018-05-18T00:56:10.513Z,15.90
2018-05-18T00:59:13.339Z,15.90
2018-05-18T01:02:15.907Z,15.80
2018-05-18T01:05:18.611Z,15.90
2018-05-18T01:08:21.382Z,15.90
2018-05-18T01:11:24.017Z,15.90
2018-05-18T01:14:26.713Z,15.90
2018-05-18T01:17:30.439Z,15.90
2018-05-18T01:20:33.084Z,15.90
2018-05-18T01:23:35.650Z,15.90
2018-05-18T01:26:39.137Z,15.90
2018-05-18T01:29:42.068Z,15.80
2018-05-18T01:32:45.435Z,15.80
2018-05-18T01:35:48.074Z,15.80
2018-05-18T01:38:50.773Z,15.80
2018-05-18T01:41:53.395Z,15.80
2018-05-18T01:44:55.958Z,15.70
2018-05-18T01:47:58.555Z,15.70
2018-05-18T01:51:01.142Z,15.70
2018-05-18T01:54:04.552Z,15.60
2018-05-18T01:57:07.337Z,15.60
2018-05-18T02:00:10.712Z,15.60
2018-05-18T02:03:13.296Z,15.60
2018-05-18T02:06:16.229Z,15.60
2018-05-18T02:09:18.989Z,15.60
2018-05-18T02:12:21.591Z,15.50
2018-05-18T02:15:24.205Z,15.50
2018-05-18T02:18:26.769Z,15.50
2018-05-18T02:21:29.352Z,15.50
2018-05-18T02:24:31.941Z,15.60
2018-05-18T02:27:34.515Z,15.50
2018-05-18T02:30:37.129Z,15.50
2018-05-18T02:33:39.729Z,15.50
2018-05-18T02:36:42.399Z,15.40
2018-05-18T02:39:44.992Z,15.40
2018-05-18T02:42:47.617Z,15.40
2018-05-18T02:45:50.224Z,15.30
2018-05-18T02:48:52.809Z,15.30
2018-05-18T02:51:55.387Z,15.30
2018-05-18T02:54:57.983Z,15.30
2018-05-18T02:58:00.564Z,15.20
2018-05-18T03:01:03.220Z,15.20
2018-05-18T03:04:05.807Z,15.20
2018-05-18T03:07:08.393Z,15.20
2018-05-18T03:10:11.746Z,15.00
2018-05-18T03:13:15.128Z,15.00
2018-05-18T03:16:17.716Z,15.00
2018-05-18T03:19:21.196Z,15.00
2018-05-18T03:22:23.737Z,15.00
2018-05-18T03:25:26.372Z,14.90
2018-05-18T03:28:28.961Z,14.90
2018-05-18T03:31:31.587Z,14.90
2018-05-18T03:34:34.151Z,14.80
2018-05-18T03:37:36.763Z,14.90
2018-05-18T03:40:39.331Z,14.90
2018-05-18T03:43:41.908Z,14.90
2018-05-18T03:46:44.485Z,14.90
2018-05-18T03:49:48.285Z,14.90
2018-05-18T03:52:50.964Z,14.90
2018-05-18T03:55:54.354Z,14.90
2018-05-18T03:58:56.930Z,14.90
2018-05-18T04:02:11.367Z,15.00
2018-05-18T04:05:25.799Z,14.90
2018-05-18T04:08:52.231Z,14.90
2018-05-18T04:11:54.830Z,14.80
2018-05-18T04:14:57.444Z,14.80
2018-05-18T04:18:00.068Z,14.80
2018-05-18T04:21:02.749Z,14.90
2018-05-18T04:24:05.445Z,15.00
2018-05-18T04:27:08.029Z,15.10
2018-05-18T04:30:10.747Z,15.10
2018-05-18T04:33:14.090Z,15.30
2018-05-18T04:36:16.768Z,15.30
2018-05-18T04:39:19.386Z,15.40
2018-05-18T04:42:22.035Z,15.50
2018-05-18T04:45:24.663Z,15.60
2018-05-18T04:48:27.260Z,15.60
2018-05-18T04:51:30.203Z,15.70
2018-05-18T04:54:32.767Z,15.90
2018-05-18T04:57:36.152Z,15.90
2018-05-18T05:00:38.752Z,15.90
2018-05-18T05:03:42.086Z,16.10
2018-05-18T05:06:44.706Z,16.00
2018-05-18T05:09:47.297Z,16.20
2018-05-18T05:12:49.861Z,16.20
2018-05-18T05:15:52.454Z,16.30
2018-05-18T05:18:55.054Z,16.30
2018-05-18T05:21:58.484Z,16.50
2018-05-18T05:25:01.099Z,16.40
2018-05-18T05:28:03.765Z,16.50
2018-05-18T05:31:06.656Z,16.50
2018-05-18T05:34:09.330Z,16.70
2018-05-18T05:37:13.958Z,16.80
2018-05-18T05:40:17.546Z,17.00
2018-05-18T05:43:20.134Z,17.10
2018-05-18T05:46:23.016Z,17.30
2018-05-18T05:49:25.599Z,17.40
2018-05-18T05:52:28.336Z,17.70
2018-05-18T05:55:30.973Z,17.90
2018-05-18T05:58:34.414Z,18.10
2018-05-18T06:01:38.417Z,18.30
2018-05-18T06:04:41.038Z,18.50
2018-05-18T06:07:44.418Z,18.70
2018-05-18T06:10:47.973Z,18.70
2018-05-18T06:13:50.634Z,18.70
2018-05-18T06:16:54.091Z,18.80
2018-05-18T06:19:56.790Z,18.70
2018-05-18T06:22:59.511Z,18.70
2018-05-18T06:26:02.805Z,18.50
2018-05-18T06:29:05.398Z,18.60
2018-05-18T06:32:08.007Z,18.80
2018-05-18T06:35:10.729Z,19.00
2018-05-18T06:38:14.455Z,19.20
2018-05-18T06:41:17.935Z,19.40
2018-05-18T06:44:20.598Z,19.80
2018-05-18T06:47:23.201Z,20.00
2018-05-18T06:50:25.815Z,20.10
2018-05-18T06:53:29.187Z,20.50
2018-05-18T06:56:31.769Z,20.50
2018-05-18T06:59:34.429Z,20.70
2018-05-18T07:02:37.077Z,20.70
2018-05-18T07:05:39.903Z,20.80
2018-05-18T07:08:44.678Z,20.80
2018-05-18T07:11:47.313Z,20.80
2018-05-18T07:14:49.925Z,21.20
2018-05-18T07:17:53.300Z,22.70
2018-05-18T07:20:55.912Z,22.70
2018-05-18T07:23:58.697Z,24.10
2018-05-18T07:27:01.396Z,24.80
2018-05-18T07:30:05.120Z,25.80
2018-05-18T07:33:07.739Z,26.50
2018-05-18T07:36:10.373Z,28.20
2018-05-18T07:39:13.044Z,30.00
2018-05-18T07:42:16.498Z,32.50
2018-05-18T07:45:19.523Z,32.40
2018-05-18T07:48:22.144Z,31.70
2018-05-18T07:51:24.787Z,30.60
2018-05-18T07:54:27.399Z,29.70
2018-05-18T07:57:30.035Z,29.60
2018-05-18T08:00:32.695Z,29.20
2018-05-18T08:03:38.008Z,28.60
2018-05-18T08:06:41.366Z,27.80
2018-05-18T08:09:43.970Z,27.80
2018-05-18T08:12:46.568Z,27.60
2018-05-18T08:15:49.154Z,27.30
2018-05-18T08:18:52.552Z,27.00
2018-05-18T08:21:55.190Z,27.00
2018-05-18T08:24:57.808Z,26.80
2018-05-18T08:28:01.335Z,27.30
2018-05-18T08:31:07.863Z,27.30
2018-05-18T08:34:10.478Z,27.70
2018-05-18T08:37:13.122Z,28.00
2018-05-18T08:40:15.711Z,28.10
2018-05-18T08:43:19.095Z,28.20
2018-05-18T08:46:21.728Z,28.20
2018-05-18T08:49:25.082Z,28.10
2018-05-18T08:52:27.716Z,28.10
2018-05-18T08:55:31.157Z,27.70
2018-05-18T08:58:33.830Z,27.70
2018-05-18T09:01:36.619Z,27.60
2018-05-18T09:04:40.379Z,27.60
2018-05-18T09:07:43.807Z,27.00
2018-05-18T09:10:46.462Z,27.00
2018-05-18T09:13:49.061Z,26.70
2018-05-18T09:16:51.693Z,26.20
2018-05-18T09:19:58.171Z,25.80
2018-05-18T09:23:05.435Z,25.00
2018-05-18T09:26:08.101Z,24.90
2018-05-18T09:29:10.668Z,24.50
2018-05-18T09:32:13.251Z,24.10
2018-05-18T09:35:16.625Z,23.50
2018-05-18T09:38:19.206Z,23.40
2018-05-18T09:41:21.767Z,23.10
2018-05-18T09:44:24.366Z,22.90
2018-05-18T09:47:26.963Z,22.70
2018-05-18T09:50:31.827Z,22.40
2018-05-18T09:53:34.422Z,22.40
2018-05-18T09:56:36.984Z,22.40
2018-05-18T09:59:39.614Z,22.40
2018-05-18T10:02:42.178Z,22.30
2018-05-18T10:05:44.766Z,22.20
2018-05-18T10:08:47.349Z,22.20
2018-05-18T10:11:49.982Z,22.30
2018-05-18T10:14:52.719Z,22.40
2018-05-18T10:17:56.140Z,22.50
2018-05-18T10:20:58.767Z,22.70
2018-05-18T10:24:01.350Z,23.00
2018-05-18T10:27:03.928Z,23.30
2018-05-18T10:30:06.771Z,23.40
2018-05-18T10:33:10.183Z,23.60
2018-05-18T10:36:12.908Z,23.60
2018-05-18T10:39:15.513Z,23.70
2018-05-18T10:42:18.170Z,23.90
2018-05-18T10:45:20.792Z,23.80
2018-05-18T10:48:24.810Z,23.80
2018-05-18T10:51:27.675Z,23.80
2018-05-18T10:54:30.615Z,24.00
2018-05-18T10:57:33.193Z,24.10
2018-05-18T11:00:35.916Z,24.10
2018-05-18T11:03:38.548Z,24.00
2018-05-18T11:06:41.131Z,23.80
2018-05-18T11:09:44.677Z,23.80
2018-05-18T11:12:47.298Z,23.70
2018-05-18T11:15:49.899Z,23.70
2018-05-18T11:18:52.500Z,23.50
2018-05-18T11:21:55.100Z,23.50
2018-05-18T11:24:58.560Z,23.20
2018-05-18T11:28:01.230Z,23.20
2018-05-18T11:31:04.013Z,23.20
2018-05-18T11:34:06.707Z,23.00
2018-05-18T11:37:09.412Z,23.00
2018-05-18T11:40:11.999Z,23.10
2018-05-18T11:43:14.575Z,23.10
2018-05-18T11:46:17.170Z,23.20
2018-05-18T11:49:20.543Z,23.40
2018-05-18T11:52:23.175Z,23.40
2018-05-18T11:55:25.768Z,23.50
2018-05-18T11:58:28.404Z,23.80
2018-05-18T12:01:31.113Z,24.00
2018-05-18T12:04:33.767Z,24.10
2018-05-18T12:07:36.402Z,24.30
2018-05-18T12:10:39.047Z,24.40
2018-05-18T12:13:42.483Z,24.80
2018-05-18T12:16:45.063Z,24.80
2018-05-18T12:19:47.644Z,24.90
2018-05-18T12:22:50.268Z,25.10
2018-05-18T12:25:52.856Z,25.30
2018-05-18T12:28:55.716Z,25.50
2018-05-18T12:31:58.340Z,25.80
2018-05-18T12:35:00.964Z,26.10
2018-05-18T12:38:03.649Z,26.20
2018-05-18T12:41:06.316Z,26.40
2018-05-18T12:44:08.928Z,26.60
2018-05-18T12:47:11.555Z,26.70
2018-05-18T12:50:14.170Z,26.70
2018-05-18T12:53:16.945Z,26.70
2018-05-18T12:56:20.662Z,26.60
2018-05-18T12:59:24.238Z,26.60
2018-05-18T13:02:26.782Z,26.60
2018-05-18T13:05:29.399Z,26.60
2018-05-18T13:08:32.770Z,26.40
2018-05-18T13:11:35.348Z,26.40
2018-05-18T13:14:37.942Z,26.60
2018-05-18T13:17:40.531Z,26.70
2018-05-18T13:20:43.131Z,26.80
2018-05-18T13:23:46.482Z,26.50
2018-05-18T13:26:49.154Z,26.50
2018-05-18T13:29:51.881Z,26.60
2018-05-18T13:32:54.515Z,26.70
2018-05-18T13:35:57.097Z,26.70
2018-05-18T13:38:59.785Z,26.50
2018-05-18T13:42:03.207Z,26.30
2018-05-18T13:45:05.983Z,26.20
2018-05-18T13:48:08.527Z,26.00
2018-05-18T13:51:11.160Z,25.50
2018-05-18T13:54:13.781Z,25.20
2018-05-18T13:57:16.412Z,25.30
2018-05-18T14:00:19.025Z,25.40
2018-05-18T14:03:22.406Z,25.50
2018-05-18T14:06:26.048Z,25.30
2018-05-18T14:09:28.676Z,25.30
2018-05-18T14:12:31.273Z,25.30
2018-05-18T14:15:33.862Z,25.00
2018-05-18T14:18:36.479Z,24.90
2018-05-18T14:21:39.078Z,24.60
2018-05-18T14:24:41.704Z,24.40
2018-05-18T14:27:44.281Z,24.10
2018-05-18T14:30:47.965Z,23.90
2018-05-18T14:33:50.557Z,23.50
2018-05-18T14:36:53.139Z,23.10
2018-05-18T14:39:56.177Z,22.70
2018-05-18T14:42:59.659Z,21.80
2018-05-18T14:46:02.325Z,21.80
2018-05-18T14:49:05.214Z,21.10
2018-05-18T14:52:08.080Z,20.80
2018-05-18T14:55:10.691Z,20.60
2018-05-18T14:58:13.367Z,20.40
2018-05-18T15:01:17.853Z,20.10
2018-05-18T15:04:21.261Z,19.90
2018-05-18T15:07:25.456Z,19.40
2018-05-18T15:10:28.017Z,19.40
2018-05-18T15:13:30.754Z,19.30
2018-05-18T15:16:37.883Z,19.20
2018-05-18T15:19:40.626Z,19.10
2018-05-18T15:22:43.999Z,18.90
2018-05-18T15:25:46.575Z,18.90
2018-05-18T15:28:49.194Z,18.90
2018-05-18T15:31:51.818Z,18.90
2018-05-18T15:34:54.425Z,18.90
2018-05-18T15:37:57.101Z,19.00
2018-05-18T15:40:59.736Z,19.10
2018-05-18T15:44:02.408Z,19.20
2018-05-18T15:47:06.729Z,19.40
2018-05-18T15:50:09.338Z,19.30
2018-05-18T15:53:11.947Z,19.50
2018-05-18T15:56:14.520Z,19.50
2018-05-18T15:59:17.138Z,19.70
2018-05-18T16:02:19.727Z,19.80
2018-05-18T16:05:22.345Z,20.10
2018-05-18T16:08:25.194Z,20.40
2018-05-18T16:11:28.770Z,21.10
2018-05-18T16:14:31.376Z,21.10
2018-05-18T16:17:34.772Z,21.40
2018-05-18T16:20:37.374Z,21.60
2018-05-18T16:23:40.296Z,21.90
2018-05-18T16:26:43.010Z,22.00
2018-05-18T16:29:45.603Z,22.10
2018-05-18T16:32:48.334Z,22.20
2018-05-18T16:35:50.899Z,22.00
2018-05-18T16:38:53.492Z,22.00
2018-05-18T16:41:56.116Z,21.90
2018-05-18T16:44:58.750Z,21.80
2018-05-18T16:48:02.157Z,21.50
2018-05-18T16:51:05.820Z,21.50
2018-05-18T16:54:09.037Z,21.50
2018-05-18T16:57:11.645Z,21.40
2018-05-18T17:00:14.348Z,21.30
2018-05-18T17:03:17.021Z,21.20
2018-05-18T17:06:19.628Z,20.90
2018-05-18T17:09:22.224Z,20.80
2018-05-18T17:12:24.874Z,20.70
2018-05-18T17:15:27.560Z,20.70
2018-05-18T17:18:30.159Z,20.60
2018-05-18T17:21:32.735Z,20.40
2018-05-18T17:24:36.159Z,20.10
2018-05-18T17:27:38.807Z,20.10
2018-05-18T17:30:41.396Z,20.10
2018-05-18T17:33:44.007Z,20.00
2018-05-18T17:36:46.615Z,20.00
2018-05-18T17:39:49.321Z,20.00
2018-05-18T17:42:51.955Z,19.80
2018-05-18T17:45:54.876Z,19.70
2018-05-18T17:48:58.485Z,19.70
2018-05-18T17:52:01.918Z,19.70
2018-05-18T17:55:04.641Z,19.60
2018-05-18T17:58:08.146Z,19.50
2018-05-18T18:01:10.773Z,19.50
2018-05-18T18:04:13.395Z,19.40
2018-05-18T18:07:16.012Z,19.30
2018-05-18T18:10:18.722Z,19.30
2018-05-18T18:13:21.405Z,19.20
2018-05-18T18:16:23.999Z,19.20
2018-05-18T18:19:26.672Z,19.20
2018-05-18T18:22:29.345Z,19.10
2018-05-18T18:25:32.437Z,19.10
2018-05-18T18:28:35.846Z,19.00
2018-05-18T18:31:38.409Z,19.00
2018-05-18T18:34:42.370Z,18.70
2018-05-18T18:37:44.981Z,18.60
2018-05-18T18:40:47.640Z,18.50
2018-05-18T18:43:50.501Z,18.40
2018-05-18T18:46:53.182Z,18.40
2018-05-18T18:49:56.006Z,18.30
2018-05-18T18:52:58.736Z,18.20
2018-05-18T18:56:01.368Z,18.00
2018-05-18T18:59:04.141Z,18.00
2018-05-18T19:02:07.432Z,17.90
2018-05-18T19:05:10.078Z,17.80
2018-05-18T19:08:12.695Z,17.70
2018-05-18T19:11:15.417Z,17.60
2018-05-18T19:14:18.403Z,17.40
2018-05-18T19:17:21.053Z,17.30
2018-05-18T19:20:23.656Z,17.20
2018-05-18T19:23:26.255Z,17.20
2018-05-18T19:26:28.903Z,17.10
2018-05-18T19:29:31.802Z,17.10
2018-05-18T19:32:34.402Z,17.10
2018-05-18T19:35:37.027Z,17.10
2018-05-18T19:38:39.676Z,17.00
2018-05-18T19:41:42.414Z,17.10
2018-05-18T19:44:45.364Z,17.00
2018-05-18T19:47:49.693Z,17.00
2018-05-18T19:50:52.307Z,17.00
2018-05-18T19:53:54.920Z,16.90
2018-05-18T19:56:57.503Z,16.80
2018-05-18T20:00:00.175Z,16.80
2018-05-18T20:03:02.944Z,16.70
2018-05-18T20:06:05.726Z,16.60
2018-05-18T20:09:09.163Z,16.50
2018-05-18T20:12:12.670Z,16.50
2018-05-18T20:15:15.263Z,16.40
2018-05-18T20:18:18.047Z,16.40
2018-05-18T20:21:21.539Z,16.40
2018-05-18T20:24:24.124Z,16.30
2018-05-18T20:27:26.746Z,16.30
2018-05-18T20:30:30.163Z,16.30
2018-05-18T20:33:32.817Z,16.30
2018-05-18T20:36:35.408Z,16.30
2018-05-18T20:39:38.579Z,16.30
2018-05-18T20:42:41.318Z,16.20
2018-05-18T20:45:43.972Z,16.20
2018-05-18T20:48:46.656Z,16.10
2018-05-18T20:51:50.114Z,16.10
2018-05-18T20:54:52.649Z,16.10
2018-05-18T20:57:56.006Z,16.00
2018-05-18T21:00:58.616Z,16.00
2018-05-18T21:04:01.538Z,16.00
2018-05-18T21:07:04.133Z,16.00
2018-05-18T21:10:07.011Z,16.00
2018-05-18T21:13:09.624Z,16.00
2018-05-18T21:16:12.259Z,15.90
2018-05-18T21:19:15.610Z,15.80
2018-05-18T21:22:18.258Z,15.80
2018-05-18T21:25:20.869Z,15.80
2018-05-18T21:28:23.491Z,15.80
2018-05-18T21:31:26.144Z,15.70
2018-05-18T21:34:29.652Z,15.70
2018-05-18T21:37:33.463Z,15.60
2018-05-18T21:40:36.039Z,15.60
2018-05-18T21:43:38.653Z,15.60
2018-05-18T21:46:41.265Z,15.60
2018-05-18T21:49:43.850Z,15.60
2018-05-18T21:52:46.645Z,15.60
2018-05-18T21:55:49.436Z,15.60
2018-05-18T21:58:52.103Z,15.60
2018-05-18T22:01:54.699Z,15.70
2018-05-18T22:04:57.467Z,15.70
2018-05-18T22:08:00.156Z,15.70
2018-05-18T22:11:02.758Z,15.70
2018-05-18T22:14:05.393Z,15.70
2018-05-18T22:17:07.962Z,15.80
2018-05-18T22:20:10.600Z,15.80
2018-05-18T22:23:13.263Z,15.90
2018-05-18T22:26:15.898Z,15.90
2018-05-18T22:29:18.624Z,15.90
2018-05-18T22:32:22.011Z,15.90
2018-05-18T22:35:24.615Z,15.90
2018-05-18T22:38:27.253Z,15.90
2018-05-18T22:41:31.637Z,15.90
2018-05-18T22:44:34.247Z,15.90
2018-05-18T22:47:36.846Z,16.00
2018-05-18T22:50:39.487Z,16.00
2018-05-18T22:53:42.099Z,15.80
2018-05-18T22:56:44.699Z,15.80
2018-05-18T22:59:47.347Z,15.70
2018-05-18T23:02:50.214Z,15.60
2018-05-18T23:05:52.806Z,15.60
2018-05-18T23:08:55.449Z,15.60
2018-05-18T23:11:58.038Z,15.60
2018-05-18T23:15:01.406Z,15.60
2018-05-18T23:18:04.056Z,15.60
2018-05-18T23:21:06.658Z,15.60
2018-05-18T23:24:09.244Z,15.60
2018-05-18T23:27:11.833Z,15.70
2018-05-18T23:30:14.563Z,15.70
2018-05-18T23:33:17.326Z,15.70
2018-05-18T23:36:19.909Z,15.70
2018-05-18T23:39:23.246Z,15.70
2018-05-18T23:42:25.859Z,15.70
2018-05-18T23:45:28.432Z,15.70
2018-05-18T23:48:31.059Z,15.70
2018-05-18T23:51:33.760Z,15.70
2018-05-18T23:54:36.652Z,15.60
2018-05-18T23:57:39.255Z,15.60
